Time;durP1;ratioP1;P1;durP2;ratioP2;P2;SDS_P1;SDS_P2;PMS_P1;PMS_P2;Temp;Humidity;BMP_temperature;BMP_pressure;BME280_temperature;BME280_humidity;BME280_pressure;Samples;Min_cycle;Max_cycle;Signal;HPM_P1;HPM_P2
2021/06/23 00:01:19;;;;;;;20.13;15.07;;;;;;;19.85;78.08;98560.69;261568;1093;25974;-76
2021/06/23 00:06:24;;;;;;;19.50;14.50;;;;;;;19.77;78.34;98557.80;261714;1093;25987;-75
2021/06/23 00:11:45;;;;;;;22.27;16.63;;;;;;;19.71;78.66;98552.98;261972;1093;26697;-75
2021/06/23 00:16:51;;;;;;;19.77;14.87;;;;;;;19.66;79.07;98573.84;262159;1093;22838;-76
2021/06/23 00:21:54;;;;;;;18.45;14.65;;;;;;;19.62;78.55;98566.77;261751;1093;24239;-75
2021/06/23 00:27:05;;;;;;;20.00;15.03;;;;;;;19.60;79.16;98572.56;261806;1093;25871;-75
2021/06/23 00:32:15;;;;;;;19.25;14.45;;;;;;;19.59;79.59;98568.27;262143;1092;27093;-76
2021/06/23 00:37:19;;;;;;;19.23;14.13;;;;;;;19.58;79.49;98568.62;262037;1093;23354;-76
2021/06/23 00:42:22;;;;;;;17.40;14.15;;;;;;;19.61;79.63;98582.27;262083;1092;25887;-76
2021/06/23 00:47:26;;;;;;;17.33;13.27;;;;;;;19.64;79.23;98591.64;261751;1092;26289;-75
2021/06/23 00:52:34;;;;;;;14.90;11.90;;;;;;;19.66;79.69;98583.94;262056;1092;22782;-75
2021/06/23 00:57:57;;;;;;;16.57;12.57;;;;;;;19.65;79.38;98587.80;262056;1093;25951;-76
2021/06/23 01:03:09;;;;;;;15.37;11.97;;;;;;;19.67;79.42;98599.11;261895;1092;24339;-76
2021/06/23 01:08:21;;;;;;;15.20;11.70;;;;;;;19.75;79.67;98598.11;262011;1093;22766;-75
2021/06/23 01:13:28;;;;;;;13.60;11.03;;;;;;;19.80;79.60;98606.03;261781;1093;22928;-76
2021/06/23 01:18:35;;;;;;;15.73;11.87;;;;;;;19.83;79.54;98612.69;262056;1093;22855;-76
2021/06/23 01:23:38;;;;;;;13.03;9.90;;;;;;;19.84;79.53;98608.84;261976;1093;25986;-76
2021/06/23 01:28:42;;;;;;;11.07;9.70;;;;;;;19.86;79.35;98614.70;261531;1093;23227;-76
2021/06/23 01:33:49;;;;;;;11.93;9.63;;;;;;;19.90;79.36;98621.00;261674;1093;22783;-75
2021/06/23 01:38:54;;;;;;;10.83;9.70;;;;;;;19.90;79.77;98615.56;261516;1093;22760;-76
2021/06/23 01:43:58;;;;;;;11.63;10.43;;;;;;;19.89;79.50;98613.20;261500;1092;23365;-75
2021/06/23 01:49:04;;;;;;;10.95;9.75;;;;;;;19.87;79.56;98627.15;262050;1093;25858;-76
2021/06/23 01:54:28;;;;;;;11.40;9.87;;;;;;;19.86;79.28;98614.70;261502;1093;22801;-76
2021/06/23 01:59:32;;;;;;;10.70;9.15;;;;;;;19.85;79.27;98610.39;261618;1093;26271;-75
2021/06/23 02:05:17;;;;;;;10.75;9.45;;;;;;;19.82;79.30;98619.26;261440;1093;22792;-75
2021/06/23 02:10:49;;;;;;;11.20;9.80;;;;;;;19.82;79.49;98621.97;261439;1093;22948;-77
2021/06/23 02:15:55;;;;;;;9.87;8.87;;;;;;;19.82;79.48;98630.94;261504;1093;24352;-75
2021/06/23 02:21:01;;;;;;;11.23;9.23;;;;;;;19.85;79.13;98651.16;261633;1092;22929;-75
2021/06/23 02:26:05;;;;;;;10.87;9.77;;;;;;;19.89;79.20;98654.75;261481;1093;25893;-75
2021/06/23 02:31:17;;;;;;;15.67;11.70;;;;;;;19.83;79.17;98656.95;261634;1093;25899;-75
2021/06/23 02:36:32;;;;;;;16.75;12.50;;;;;;;19.80;79.21;98657.66;261482;1093;25906;-75
2021/06/23 02:41:36;;;;;;;17.50;12.97;;;;;;;19.75;79.08;98657.12;261558;1093;27264;-75
2021/06/23 02:46:42;;;;;;;15.35;12.10;;;;;;;19.68;79.13;98665.11;261448;1093;22754;-75
2021/06/23 02:51:57;;;;;;;15.43;12.87;;;;;;;19.58;79.13;98659.05;261429;1093;22809;-75
2021/06/23 02:57:01;;;;;;;14.47;12.37;;;;;;;19.50;79.40;98665.44;261656;1093;22803;-75
2021/06/23 03:02:18;;;;;;;16.47;12.00;;;;;;;19.49;79.73;98651.08;262133;1092;22965;-75
2021/06/23 03:07:23;;;;;;;14.97;11.40;;;;;;;19.50;79.64;98662.73;261813;1092;22849;-76
2021/06/23 03:12:30;;;;;;;15.60;13.00;;;;;;;19.50;79.54;98679.03;261706;1092;25154;-74
2021/06/23 03:17:53;;;;;;;14.95;12.60;;;;;;;19.49;79.59;98691.83;262072;1092;26681;-75
2021/06/23 03:22:59;;;;;;;14.13;12.43;;;;;;;19.49;79.67;98693.77;261883;1092;24461;-75
2021/06/23 03:28:04;;;;;;;15.90;13.73;;;;;;;19.46;79.67;98703.41;261988;1092;22930;-75
2021/06/23 03:33:10;;;;;;;14.07;12.23;;;;;;;19.42;79.35;98709.86;262013;1092;25455;-75
2021/06/23 03:38:42;;;;;;;15.80;13.45;;;;;;;19.37;80.00;98700.05;261526;1093;24052;-76
2021/06/23 03:43:48;;;;;;;17.75;13.85;;;;;;;19.40;79.84;98714.87;261577;1092;26408;-75
2021/06/23 03:49:02;;;;;;;15.50;13.07;;;;;;;19.45;79.54;98730.92;261537;1093;22934;-75
2021/06/23 03:54:21;;;;;;;11.10;10.00;;;;;;;19.49;79.46;98742.67;262088;1092;26251;-75
2021/06/23 03:59:24;;;;;;;11.95;10.20;;;;;;;19.49;79.60;98739.95;262195;1092;26318;-75
2021/06/23 04:04:28;;;;;;;10.27;8.93;;;;;;;19.49;79.39;98739.95;261818;1092;22921;-76
2021/06/23 04:09:56;;;;;;;10.67;8.93;;;;;;;19.51;79.39;98750.47;261689;1092;25423;-75
2021/06/23 04:15:14;;;;;;;9.63;8.63;;;;;;;19.49;79.49;98745.39;261898;1092;22844;-74
2021/06/23 04:20:18;;;;;;;11.43;8.40;;;;;;;19.46;79.75;98741.44;261640;1092;26279;-75
2021/06/23 04:25:29;;;;;;;10.45;8.55;;;;;;;19.50;79.61;98741.51;261347;1093;22838;-75
2021/06/23 04:30:33;;;;;;;10.70;8.00;;;;;;;19.55;79.53;98751.34;262100;1093;22988;-76
2021/06/23 04:35:37;;;;;;;8.87;7.93;;;;;;;19.55;79.50;98746.70;261534;1093;22752;-75
2021/06/23 04:40:43;;;;;;;12.07;8.97;;;;;;;19.60;79.62;98749.16;261508;1093;22921;-76
2021/06/23 04:45:47;;;;;;;12.35;8.80;;;;;;;19.59;79.93;98744.86;261997;1092;22888;-77
2021/06/23 04:50:52;;;;;;;9.97;8.97;;;;;;;19.58;79.68;98724.26;261485;1092;22783;-75
2021/06/23 04:56:00;;;;;;;11.10;8.63;;;;;;;19.60;79.74;98719.28;261728;1092;22908;-75
2021/06/23 05:01:10;;;;;;;10.73;8.97;;;;;;;19.63;79.94;98742.25;261907;1091;24089;-76
2021/06/23 05:06:21;;;;;;;9.60;8.60;;;;;;;19.71;79.88;98748.64;261729;1092;25193;-76
2021/06/23 05:11:34;;;;;;;9.58;8.58;;;;;;;19.84;80.14;98742.02;261900;1092;25877;-76
2021/06/23 05:16:54;;;;;;;8.50;7.65;;;;;;;20.03;79.58;98751.39;262084;1093;22796;-76
2021/06/23 05:22:01;;;;;;;9.00;7.73;;;;;;;20.16;79.37;98733.81;261879;1093;25992;-75
2021/06/23 05:27:05;;;;;;;7.07;6.37;;;;;;;20.28;78.98;98741.87;261976;1093;22792;-75
2021/06/23 05:32:08;;;;;;;8.20;7.40;;;;;;;20.35;78.83;98750.19;262084;1092;22774;-76
2021/06/23 05:37:12;;;;;;;6.90;6.20;;;;;;;20.42;77.92;98749.56;262139;1092;23059;-74
2021/06/23 05:42:17;;;;;;;6.53;5.70;;;;;;;20.45;77.95;98759.73;262182;1093;22804;-76
2021/06/23 05:47:21;;;;;;;6.73;6.03;;;;;;;20.49;77.61;98776.15;262611;1092;25973;-75
2021/06/23 05:52:24;;;;;;;6.95;6.28;;;;;;;20.53;77.86;98782.46;262539;1091;25881;-75
2021/06/23 05:57:27;;;;;;;7.50;6.40;;;;;;;20.63;77.52;98783.84;262723;1091;26027;-76
2021/06/23 06:02:30;;;;;;;7.65;6.95;;;;;;;20.75;77.51;98791.92;262566;1093;25839;-77
2021/06/23 06:07:34;;;;;;;7.00;6.15;;;;;;;20.91;77.35;98791.86;262612;1092;22847;-75
2021/06/23 06:12:37;;;;;;;8.95;6.80;;;;;;;21.05;76.71;98791.36;262357;1092;24527;-76
2021/06/23 06:17:42;;;;;;;6.70;6.00;;;;;;;21.12;76.23;98812.52;262312;1092;22776;-76
2021/06/23 06:22:46;;;;;;;7.48;6.78;;;;;;;21.06;75.83;98841.97;262700;1093;26398;-76
2021/06/23 06:27:49;;;;;;;7.43;6.13;;;;;;;20.98;76.07;98868.24;261939;1093;25887;-77
2021/06/23 06:32:53;;;;;;;7.97;7.20;;;;;;;20.89;75.67;98867.67;262005;1092;22908;-74
2021/06/23 06:37:57;;;;;;;7.03;6.38;;;;;;;20.67;75.52;98869.89;261931;1092;22779;-74
2021/06/23 06:43:00;;;;;;;7.45;6.65;;;;;;;20.55;75.66;98856.35;262243;1092;22766;-75
2021/06/23 06:48:04;;;;;;;7.00;6.33;;;;;;;20.51;75.97;98871.83;262244;1092;25881;-76
2021/06/23 06:53:07;;;;;;;6.75;5.80;;;;;;;20.53;76.18;98866.03;261898;1092;22847;-76
2021/06/23 06:58:10;;;;;;;6.33;5.73;;;;;;;20.57;76.45;98859.52;261663;1092;22782;-75
2021/06/23 07:03:14;;;;;;;7.10;5.63;;;;;;;20.70;76.18;98862.95;261866;1092;22784;-76
2021/06/23 07:08:17;;;;;;;5.95;5.35;;;;;;;20.80;76.11;98867.88;261807;1093;22871;-75
2021/06/23 07:13:22;;;;;;;5.80;4.80;;;;;;;20.83;75.42;98869.88;262158;1093;22799;-76
2021/06/23 07:18:27;;;;;;;4.50;4.10;;;;;;;20.95;75.99;98863.52;261708;1093;25925;-76
2021/06/23 07:23:31;;;;;;;5.18;4.78;;;;;;;21.20;75.13;98863.27;261842;1093;22869;-76
2021/06/23 07:28:53;;;;;;;4.98;4.48;;;;;;;21.42;75.09;98875.39;261944;1093;22789;-76
2021/06/23 07:34:12;;;;;;;4.83;4.43;;;;;;;21.57;74.38;98864.80;262520;1092;23215;-76
2021/06/23 07:39:17;;;;;;;6.10;4.60;;;;;;;21.68;73.95;98863.84;261815;1093;24318;-77
2021/06/23 07:49:48;;;;;;;5.28;4.78;;;;;;;21.57;73.34;98871.03;261692;1093;22783;-77
2021/06/23 07:55:06;;;;;;;5.43;4.93;;;;;;;21.47;73.43;98869.64;261977;1092;22775;-77
2021/06/23 08:10:58;;;;;;;8.10;5.95;;;;;;;21.41;73.17;98883.94;261847;1093;22869;-76
2021/06/23 08:16:02;;;;;;;6.40;5.63;;;;;;;21.36;73.45;98887.72;262156;1093;26324;-76
2021/06/23 08:21:05;;;;;;;6.28;5.68;;;;;;;21.45;73.61;98885.58;261964;1092;22797;-76
2021/06/23 08:26:08;;;;;;;8.30;7.20;;;;;;;21.58;73.05;98886.24;261742;1093;26762;-76
2021/06/23 08:31:12;;;;;;;8.28;7.48;;;;;;;21.71;72.55;98886.88;261738;1093;23337;-77
2021/06/23 08:36:21;;;;;;;7.78;6.98;;;;;;;22.05;72.90;98895.31;262257;1093;25198;-77
2021/06/23 08:41:29;;;;;;;7.78;7.08;;;;;;;22.54;72.49;98904.74;262125;1093;22776;-77
2021/06/23 08:46:32;;;;;;;8.50;7.70;;;;;;;22.90;71.63;98905.27;262465;1091;22871;-76
2021/06/23 08:51:49;;;;;;;8.85;8.05;;;;;;;23.22;70.48;98910.42;262276;1093;22945;-77
2021/06/23 08:56:54;;;;;;;8.13;7.28;;;;;;;23.42;69.78;98913.83;262226;1091;23766;-76
2021/06/23 09:01:57;;;;;;;9.13;8.13;;;;;;;23.57;69.06;98912.04;262427;1092;25944;-77
2021/06/23 09:07:01;;;;;;;8.58;7.80;;;;;;;23.79;68.89;98909.56;261691;1093;22831;-76
2021/06/23 09:12:07;;;;;;;8.55;7.75;;;;;;;23.85;68.45;98919.00;262205;1092;24309;-76
2021/06/23 09:17:17;;;;;;;10.33;9.43;;;;;;;23.99;67.63;98907.45;261855;1093;22877;-77
2021/06/23 09:22:31;;;;;;;9.43;7.73;;;;;;;24.09;67.06;98921.25;262175;1092;23817;-76
2021/06/23 09:27:34;;;;;;;8.73;8.03;;;;;;;24.06;66.91;98921.20;263917;1093;22787;-75
2021/06/23 09:32:37;;;;;;;8.45;7.70;;;;;;;23.98;66.76;98919.55;262044;1093;22811;-75
2021/06/23 09:37:41;;;;;;;8.90;8.10;;;;;;;23.89;66.28;98925.33;261898;1092;23049;-76
2021/06/23 09:42:51;;;;;;;9.78;8.80;;;;;;;23.88;66.28;98923.75;262405;1092;22901;-76
2021/06/23 09:47:59;;;;;;;10.40;9.48;;;;;;;23.88;66.53;98921.81;261925;1092;22760;-76
2021/06/23 09:53:08;;;;;;;10.45;9.45;;;;;;;23.91;66.23;98928.49;261884;1091;22844;-76
2021/06/23 09:58:25;;;;;;;10.30;9.30;;;;;;;23.81;65.98;98923.64;261829;1093;23596;-76
2021/06/23 10:03:34;;;;;;;11.53;10.53;;;;;;;23.83;66.53;98924.07;262234;1092;22742;-77
2021/06/23 10:08:37;;;;;;;11.20;10.08;;;;;;;23.98;66.35;98923.09;262346;1093;22784;-76
2021/06/23 10:13:40;;;;;;;12.57;11.47;;;;;;;24.39;66.45;98920.34;262354;1092;22845;-76
2021/06/23 10:18:43;;;;;;;12.05;10.85;;;;;;;24.96;65.27;98910.22;262282;1092;24195;-76
2021/06/23 10:23:48;;;;;;;11.98;10.78;;;;;;;25.50;64.90;98921.50;262070;1092;24342;-77
2021/06/23 10:28:54;;;;;;;11.85;10.78;;;;;;;25.79;63.40;98927.88;261836;1093;23615;-74
2021/06/23 10:33:57;;;;;;;12.70;11.50;;;;;;;25.92;62.71;98917.33;262342;1092;25527;-73
2021/06/23 10:39:04;;;;;;;12.68;11.65;;;;;;;25.94;61.51;98909.51;262213;1093;22866;-76
2021/06/23 10:44:36;;;;;;;12.70;11.55;;;;;;;25.83;61.32;98919.65;262429;1092;22774;-76
2021/06/23 10:49:43;;;;;;;13.45;12.05;;;;;;;25.75;61.38;98919.63;262145;1093;22790;-75
2021/06/23 10:55:01;;;;;;;13.60;10.75;;;;;;;25.60;61.56;98915.27;261798;1093;22748;-75
2021/06/23 11:00:12;;;;;;;12.65;11.50;;;;;;;25.48;61.31;98923.83;262479;1093;22806;-76
2021/06/23 11:05:32;;;;;;;12.70;11.40;;;;;;;25.33;61.21;98937.48;261593;1093;22773;-75
2021/06/23 11:10:40;;;;;;;18.18;11.88;;;;;;;25.21;61.47;98933.09;261999;1093;24006;-76
2021/06/23 11:15:48;;;;;;;12.93;11.68;;;;;;;25.22;61.37;98931.13;262095;1092;23401;-75
2021/06/23 11:21:08;;;;;;;11.23;10.10;;;;;;;25.16;61.27;98938.16;261707;1093;26356;-75
2021/06/23 11:26:21;;;;;;;11.38;9.50;;;;;;;24.84;61.96;98930.51;262238;1092;25973;-75
2021/06/23 11:32:02;;;;;;;11.28;10.18;;;;;;;24.60;62.37;98936.19;265293;1092;22822;-77
2021/06/23 11:37:21;;;;;;;10.25;9.28;;;;;;;24.54;62.72;98931.41;261910;1093;23507;-76
2021/06/23 11:42:24;;;;;;;12.27;11.17;;;;;;;24.59;63.01;98923.63;262060;1093;22830;-76
2021/06/23 11:47:40;;;;;;;12.25;11.18;;;;;;;24.77;62.97;98918.31;261822;1091;22825;-77
2021/06/23 11:52:50;;;;;;;12.08;11.00;;;;;;;25.00;62.99;98921.99;261763;1093;22840;-77
2021/06/23 11:57:58;;;;;;;12.68;11.48;;;;;;;25.19;62.14;98916.23;261895;1092;23914;-76
2021/06/23 12:03:03;;;;;;;12.43;11.23;;;;;;;25.27;61.96;98922.55;261778;1092;23388;-76
2021/06/23 12:08:07;;;;;;;12.78;11.73;;;;;;;25.15;61.44;98925.61;261849;1093;24513;-76
2021/06/23 12:13:12;;;;;;;13.38;12.08;;;;;;;25.08;61.63;98915.39;262292;1091;25824;-75
2021/06/23 12:18:21;;;;;;;14.13;12.70;;;;;;;25.15;61.91;98918.17;262265;1092;22904;-77
2021/06/23 12:23:24;;;;;;;13.43;12.13;;;;;;;25.13;61.45;98927.94;262681;1093;26002;-76
2021/06/23 12:28:27;;;;;;;13.65;12.23;;;;;;;25.10;61.66;98932.25;261953;1093;22770;-78
2021/06/23 12:33:34;;;;;;;13.43;12.15;;;;;;;24.98;61.59;98936.08;262868;1092;22798;-77
2021/06/23 12:38:37;;;;;;;12.03;10.70;;;;;;;24.86;61.67;98939.13;261955;1092;22857;-77
2021/06/23 12:43:42;;;;;;;12.43;11.28;;;;;;;24.71;62.18;98938.25;262117;1092;22847;-78
2021/06/23 12:48:45;;;;;;;13.73;12.43;;;;;;;24.52;62.56;98944.70;262309;1092;22816;-78
2021/06/23 12:53:48;;;;;;;12.70;11.55;;;;;;;24.43;63.05;98943.06;262323;1093;22976;-77
2021/06/23 12:58:55;;;;;;;14.03;12.65;;;;;;;24.56;63.05;98940.05;262119;1092;22837;-77
2021/06/23 13:04:08;;;;;;;13.98;12.55;;;;;;;24.89;62.76;98939.16;261522;1093;22899;-77
2021/06/23 13:09:12;;;;;;;13.70;12.40;;;;;;;25.22;62.52;98939.36;262134;1092;23331;-77
2021/06/23 13:14:15;;;;;;;13.60;12.30;;;;;;;25.57;62.08;98924.27;262645;1092;22783;-76
2021/06/23 13:19:19;;;;;;;15.60;14.20;;;;;;;26.11;62.00;98918.98;263897;1092;24288;-78
2021/06/23 13:24:22;;;;;;;15.03;13.70;;;;;;;26.58;61.12;98908.81;262111;1092;24339;-77
2021/06/23 13:29:27;;;;;;;15.38;13.88;;;;;;;26.94;60.51;98925.27;261741;1092;22950;-77
2021/06/23 13:34:31;;;;;;;16.35;14.78;;;;;;;26.92;59.01;98915.88;261460;1093;22840;-77
2021/06/23 13:39:35;;;;;;;18.87;16.90;;;;;;;26.71;58.65;98928.45;261994;1093;24182;-77
2021/06/23 13:44:39;;;;;;;16.28;14.70;;;;;;;26.56;58.85;98924.88;262052;1092;25983;-76
2021/06/23 13:49:44;;;;;;;17.88;16.15;;;;;;;26.49;58.85;98902.14;262023;1093;22825;-76
2021/06/23 13:54:47;;;;;;;15.98;14.45;;;;;;;26.36;58.95;98902.53;261937;1092;22810;-76
2021/06/23 13:59:50;;;;;;;16.15;14.63;;;;;;;26.24;58.92;98902.91;262255;1092;22821;-75
2021/06/23 14:04:53;;;;;;;15.00;13.63;;;;;;;26.06;59.06;98898.17;262330;1093;22788;-75
2021/06/23 14:09:56;;;;;;;15.00;13.70;;;;;;;25.86;59.39;98885.97;263797;1093;23456;-76
2021/06/23 14:15:00;;;;;;;14.68;13.38;;;;;;;25.57;60.00;98907.82;262229;1093;27068;-76
2021/06/23 14:20:06;;;;;;;19.05;17.20;;;;;;;25.39;60.25;98908.55;261962;1093;22863;-77
2021/06/23 14:25:11;;;;;;;15.73;14.30;;;;;;;25.23;60.72;98908.81;261478;1093;22781;-78
2021/06/23 14:30:16;;;;;;;15.20;13.80;;;;;;;25.03;60.89;98915.74;261835;1092;22880;-76
2021/06/23 14:35:22;;;;;;;14.83;12.93;;;;;;;24.83;61.79;98912.49;261910;1092;22795;-75
2021/06/23 14:40:30;;;;;;;15.05;13.65;;;;;;;24.69;62.24;98918.66;261782;1093;24345;-77
2021/06/23 14:45:33;;;;;;;;;;;;;;;24.56;62.50;98929.09;261909;1093;22754;-75
2021/06/23 14:50:38;;;;;;;15.73;14.23;;;;;;;24.41;62.61;98928.17;261939;1093;24197;-76
2021/06/23 14:55:43;;;;;;;13.73;12.53;;;;;;;24.30;63.36;98925.33;262015;1092;22962;-76
2021/06/23 15:00:46;;;;;;;15.88;14.35;;;;;;;24.27;63.69;98937.04;261461;1093;22825;-76
2021/06/23 15:05:50;;;;;;;15.93;14.55;;;;;;;24.23;63.80;98930.74;261500;1093;24035;-75
2021/06/23 15:10:53;;;;;;;14.80;13.20;;;;;;;24.16;63.79;98933.41;261790;1092;25877;-75
2021/06/23 15:15:59;;;;;;;14.88;13.33;;;;;;;24.14;64.24;98922.84;261514;1093;22763;-76
2021/06/23 15:21:02;;;;;;;12.80;11.70;;;;;;;24.09;64.44;98917.70;261910;1092;24289;-76
2021/06/23 15:26:05;;;;;;;13.63;12.23;;;;;;;24.12;64.35;98908.77;261801;1093;25859;-76
2021/06/23 15:31:10;;;;;;;12.13;10.93;;;;;;;24.16;64.57;98919.73;262093;1093;23372;-76
2021/06/23 15:36:20;;;;;;;14.18;12.88;;;;;;;24.19;64.59;98916.23;261780;1093;24336;-76
2021/06/23 15:41:28;;;;;;;14.47;12.97;;;;;;;24.17;64.79;98922.09;261933;1093;25874;-75
2021/06/23 15:46:39;;;;;;;13.25;11.95;;;;;;;24.21;64.85;98933.09;261713;1092;24168;-75
2021/06/23 15:51:45;;;;;;;11.63;10.53;;;;;;;24.12;65.09;98927.12;261959;1093;28382;-75
2021/06/23 15:56:54;;;;;;;13.00;11.70;;;;;;;24.02;65.11;98929.39;261559;1093;25932;-76
2021/06/23 16:02:17;;;;;;;14.60;13.20;;;;;;;23.93;65.66;98931.63;261796;1092;25983;-75
2021/06/23 16:07:20;;;;;;;17.70;14.18;;;;;;;23.86;65.45;98928.78;261619;1093;24362;-76
2021/06/23 16:12:24;;;;;;;13.53;11.53;;;;;;;23.78;65.53;98936.11;261950;1093;22767;-75
2021/06/23 16:17:28;;;;;;;17.30;13.07;;;;;;;23.67;65.76;98937.94;261398;1092;26095;-75
2021/06/23 16:22:35;;;;;;;15.68;13.90;;;;;;;23.58;65.87;98949.16;261427;1092;22918;-75
2021/06/23 16:27:39;;;;;;;13.85;12.65;;;;;;;23.49;65.93;98948.64;261371;1093;22780;-76
2021/06/23 16:32:43;;;;;;;16.05;13.80;;;;;;;23.41;66.28;98958.72;262053;1093;23456;-75
2021/06/23 16:37:46;;;;;;;12.80;11.38;;;;;;;23.38;66.55;98957.50;261463;1092;24065;-76
2021/06/23 16:42:49;;;;;;;14.83;13.43;;;;;;;23.37;66.83;98958.66;261598;1091;26018;-75
2021/06/23 16:47:52;;;;;;;13.87;12.47;;;;;;;23.34;66.91;98955.89;261846;1093;25954;-75
2021/06/23 16:52:57;;;;;;;16.20;14.53;;;;;;;23.30;66.97;98949.59;261910;1092;25887;-75
2021/06/23 16:58:00;;;;;;;14.80;13.07;;;;;;;23.24;67.00;98966.30;261731;1093;25877;-75
2021/06/23 17:03:05;;;;;;;14.25;12.83;;;;;;;23.20;67.13;98968.19;261977;1092;24305;-75
2021/06/23 17:08:10;;;;;;;13.23;11.93;;;;;;;23.18;67.56;98966.97;261648;1093;23314;-75
2021/06/23 17:13:22;;;;;;;15.15;13.70;;;;;;;23.15;67.70;98962.25;261677;1093;25896;-76
2021/06/23 17:18:33;;;;;;;14.43;13.03;;;;;;;23.11;67.86;98964.89;262961;1087;23379;-75
2021/06/23 17:23:37;;;;;;;12.65;11.38;;;;;;;23.06;67.81;98968.73;262774;1087;22774;-76
2021/06/23 17:28:43;;;;;;;11.75;10.65;;;;;;;22.97;68.01;98964.68;262806;1085;24424;-76
2021/06/23 17:33:58;;;;;;;12.53;11.25;;;;;;;22.88;67.92;98962.99;262689;1087;24064;-76
2021/06/23 17:39:01;;;;;;;12.33;11.20;;;;;;;22.80;68.45;98965.98;262719;1087;27061;-76
2021/06/23 17:44:24;;;;;;;12.60;11.27;;;;;;;22.66;68.53;98964.58;262693;1087;25877;-75
2021/06/23 17:49:29;;;;;;;12.18;11.00;;;;;;;22.58;68.59;98953.92;262731;1087;22757;-75
2021/06/23 17:54:32;;;;;;;13.28;11.98;;;;;;;22.55;68.92;98967.16;262780;1086;25765;-75
2021/06/23 17:59:36;;;;;;;13.95;12.45;;;;;;;22.50;68.94;98983.05;262825;1087;22848;-75
2021/06/23 18:04:40;;;;;;;12.40;11.17;;;;;;;22.42;69.24;98979.39;262678;1087;24336;-75
2021/06/23 18:09:43;;;;;;;21.13;18.90;;;;;;;22.37;69.32;98988.67;262737;1085;22827;-75
2021/06/23 18:14:46;;;;;;;14.85;13.33;;;;;;;22.33;69.61;98986.98;262784;1087;26005;-75
2021/06/23 18:19:49;;;;;;;12.78;11.43;;;;;;;22.30;69.76;98982.25;262861;1087;22760;-75
2021/06/23 18:24:52;;;;;;;15.08;12.30;;;;;;;22.25;69.77;98979.84;262873;1087;22818;-76
2021/06/23 18:30:11;;;;;;;16.43;11.97;;;;;;;22.21;69.97;98977.81;262961;1087;22866;-76
2021/06/23 18:35:22;;;;;;;15.17;12.73;;;;;;;22.16;70.20;98971.86;262938;1087;24352;-76
2021/06/23 18:40:27;;;;;;;14.50;13.00;;;;;;;22.11;70.11;98985.81;262720;1087;25845;-75
2021/06/23 18:45:32;;;;;;;14.98;11.95;;;;;;;22.10;70.45;98986.95;262875;1087;22768;-75
2021/06/23 18:50:36;;;;;;;13.23;11.90;;;;;;;22.10;70.23;98985.01;262867;1087;24347;-75
2021/06/23 18:55:39;;;;;;;16.03;13.10;;;;;;;22.13;70.55;98981.59;262761;1087;22845;-75
2021/06/23 19:00:43;;;;;;;14.83;13.23;;;;;;;22.14;70.49;98985.09;262616;1087;25855;-75
2021/06/23 19:05:46;;;;;;;16.43;14.33;;;;;;;22.16;70.47;98990.96;262690;1087;22773;-75
2021/06/23 19:10:50;;;;;;;15.25;13.68;;;;;;;22.14;70.42;98985.88;262974;1086;25456;-75
2021/06/23 19:15:54;;;;;;;16.38;13.40;;;;;;;22.13;70.67;98986.23;262955;1086;22852;-75
2021/06/23 19:20:57;;;;;;;14.63;13.23;;;;;;;22.14;70.66;98990.55;262699;1087;26002;-75
2021/06/23 19:26:00;;;;;;;14.65;13.18;;;;;;;22.15;70.66;98986.67;262760;1087;22800;-75
2021/06/23 19:31:04;;;;;;;14.88;13.30;;;;;;;22.14;70.54;98982.36;262797;1087;23733;-76
2021/06/23 19:36:07;;;;;;;12.35;11.18;;;;;;;22.16;70.34;98977.32;262958;1087;22796;-76
2021/06/23 19:41:10;;;;;;;14.03;12.63;;;;;;;22.15;70.58;98983.95;262732;1088;22798;-75
2021/06/23 19:46:13;;;;;;;15.10;13.55;;;;;;;22.13;70.57;98980.78;262944;1089;25887;-75
2021/06/23 19:51:18;;;;;;;15.03;13.38;;;;;;;22.09;70.64;98983.45;262839;1086;25407;-75
2021/06/23 19:56:22;;;;;;;14.68;13.25;;;;;;;22.05;70.51;98982.59;262892;1086;25880;-76
2021/06/23 20:01:25;;;;;;;18.05;13.88;;;;;;;22.02;70.89;98972.38;262927;1087;22800;-75
2021/06/23 20:06:28;;;;;;;15.57;14.10;;;;;;;22.00;70.80;98980.92;262867;1087;22875;-76
2021/06/23 20:11:32;;;;;;;15.80;14.20;;;;;;;21.98;70.69;98969.60;262806;1086;26127;-74
2021/06/23 20:16:37;;;;;;;15.23;13.68;;;;;;;21.95;71.19;98967.59;262847;1087;26299;-75
2021/06/23 20:21:44;;;;;;;14.93;13.50;;;;;;;21.93;70.90;98961.70;262684;1087;23299;-75
2021/06/23 20:26:48;;;;;;;15.08;13.45;;;;;;;21.92;70.97;98964.79;262664;1086;25986;-75
2021/06/23 20:31:51;;;;;;;15.88;14.15;;;;;;;21.92;71.23;98960.11;262642;1086;25970;-76
2021/06/23 20:36:54;;;;;;;16.33;14.38;;;;;;;21.93;71.29;98963.65;262720;1086;25887;-74
2021/06/23 20:41:57;;;;;;;15.40;13.40;;;;;;;21.91;71.25;98957.75;262870;1085;26258;-75
2021/06/23 20:47:01;;;;;;;18.43;13.80;;;;;;;21.84;71.20;98948.30;262735;1087;24230;-75
2021/06/23 20:52:07;;;;;;;14.73;13.00;;;;;;;21.86;71.53;98958.84;262970;1087;22971;-75
2021/06/23 20:57:16;;;;;;;16.17;14.57;;;;;;;21.87;71.52;98946.79;262733;1087;22772;-76
2021/06/23 21:02:22;;;;;;;16.27;14.60;;;;;;;21.83;71.32;98949.44;262746;1087;22766;-74
2021/06/23 21:07:31;;;;;;;16.55;14.83;;;;;;;21.83;71.54;98960.34;262831;1087;22770;-75
2021/06/23 21:12:59;;;;;;;15.25;13.65;;;;;;;21.79;71.36;98961.42;262625;1086;26292;-77
2021/06/23 21:18:13;;;;;;;16.08;14.40;;;;;;;21.75;71.58;98969.52;262706;1090;22804;-76
2021/06/23 21:23:22;;;;;;;17.40;15.33;;;;;;;21.75;71.34;98966.02;262949;1086;22897;-76
2021/06/23 21:28:30;;;;;;;16.08;14.40;;;;;;;21.72;71.87;98958.56;262733;1087;27517;-75
2021/06/23 21:33:38;;;;;;;16.03;14.33;;;;;;;21.69;72.12;98969.02;262594;1087;22850;-76
2021/06/23 21:39:11;;;;;;;;;;;;;;;21.69;72.04;98963.56;262770;1087;22887;-76
2021/06/23 21:44:26;;;;;;;16.00;14.40;;;;;;;21.67;72.13;98973.25;262581;1087;23019;-75
2021/06/23 21:49:30;;;;;;;17.70;14.88;;;;;;;21.70;72.35;98965.16;262889;1087;22939;-75
2021/06/23 21:54:51;;;;;;;17.50;15.70;;;;;;;21.68;72.30;98947.57;262726;1087;22868;-75
2021/06/23 21:59:57;;;;;;;17.55;14.93;;;;;;;21.66;72.07;98939.76;262713;1087;27173;-75
2021/06/23 22:05:06;;;;;;;16.90;14.58;;;;;;;21.68;72.64;98937.45;262629;1087;22832;-75
2021/06/23 22:10:14;;;;;;;17.23;15.43;;;;;;;21.67;72.41;98933.16;262610;1087;22766;-76
2021/06/23 22:15:23;;;;;;;18.13;15.28;;;;;;;21.66;72.35;98915.22;262639;1086;22817;-76
2021/06/23 22:20:32;;;;;;;16.48;14.55;;;;;;;21.64;72.30;98916.72;262743;1084;22931;-76
2021/06/23 22:25:36;;;;;;;15.95;14.25;;;;;;;21.62;72.40;98897.23;262818;1087;26252;-75
2021/06/23 22:30:51;;;;;;;15.93;14.27;;;;;;;21.66;72.83;98900.81;262718;1087;24065;-75
2021/06/23 22:36:01;;;;;;;17.35;14.65;;;;;;;21.74;72.92;98897.08;262694;1087;22927;-75
2021/06/23 22:41:31;;;;;;;18.83;15.08;;;;;;;21.75;72.69;98895.91;262731;1087;23366;-75
